Aroma, Missouri
Current Conditions -  °F | °C
As of 4:35 AM on Sunday 26 Oct 2014 (Local Time) from KHFJ Reporting Station
Clear Clear  
Wind Chill: 17°   Ceiling: Unl
Heat Index: 17°   Visibility: 10mi
Dew Point: 16°   Wind: 7mph
Humidity: 94%   Direction: 190°S
Pressure: 29.99"   Gusts: NA
Location:  36.8998°N, 94.263°W
Report Text: KHFJ 260935Z AUTO 19006KT 10SM CLR 17/16 A2999 RMK AO2
Loading
Personal Weather Stations






























Interactive Weather Map
Tropical Storm Tracking
New forecast layout! Learn more

10-Day Weather Forecast

Advertisements
Track Severe Weather on mobile